Adah, PA

1:18 PM EST on November 27, 2014 (GMT -0500)
HillTop Rices Landing | Change Station
CLOSE
Current Station
Personal Weather Station
Location: Rices Landing, PA
Elevation: 1118 ft
Nearby Weather Stations

Elev 1118 ft 39.93 °N, 79.95 °W | Updated 16 seconds ago

Overcast
Overcast
37.4 °F
Feels Like 34 °F
N
4.0
Wind Variable Wind from West
Gusts 10.0 mph

Today
High -- | Low -- °F
--% Chance of Precip.
Yesterday
High -- | Low -- °F
Precip. -- in
7:17 AM 4:56 PM
Waxing Crescent, 31% visible
Pressure 30.11 in
Visibility 10.0 miles
Clouds Few 2700 ft
Scattered Clouds 4000 ft
Overcast 4800 ft
Windchill 34 °F
Dew Point 30 °F
Humidity 73%
Rainfall 0.05 in
Snow Depth Not available.
UV 1 out of 12
Pollen .10 out of 12
Air Quality Not available.
Flu Activity Not available.
METAR KMGW 271753Z VRB04KT 10SM FEW027 SCT040 OVC048 03/M05 A3008 RMK AO2 SLP195 60000 T00281050 10028 20000 50003

More Conditions Fewer Conditions

Pressure 30.11 in
Visibility 10.0 miles
Clouds Few 2700 ft
Scattered Clouds 4000 ft
Overcast 4800 ft
Windchill 34 °F
Dew Point 30 °F
Humidity 73%
Rainfall 0.05 in
Snow Depth Not available.
UV 1 out of 12
Pollen .10 out of 12
Air Quality Not available.
Flu Activity Not available.
METAR KMGW 271753Z VRB04KT 10SM FEW027 SCT040 OVC048 03/M05 A3008 RMK AO2 SLP195 60000 T00281050 10028 20000 50003

More Conditions Fewer Conditions

10-Day Weather Forecast

Almanac

Astronomy

Nov. 27, 2014 Rise Set
Actual Time
Civil Twilight
Nautical Twilight
Astronomical Twilight
Moon
Length of Visible Light
Length of Day
Tomorrow will be .
, % of the Moon is Illuminated

Today's Extremes

State Highs State Lows

Community

WunderPhotos

Upload Photos

1,774,076 photos uploaded!

WunderBlogs® & News

Nearby

Air Quality

  Air Quality AQ Index Pollutant
Not available.

Snow Depth

Station Depth Elevation

Earthquake Activity

City Distance Mag. Time & Date
Minimum magnitude displayed is 2.5.

Coastal Water Temperatures

Place Temperature

Nearby Weather Stations